Time;durP1;ratioP1;P1;durP2;ratioP2;P2;SDS_P1;SDS_P2;PMS_P1;PMS_P2;Temp;Humidity;BMP_temperature;BMP_pressure;BME280_temperature;BME280_humidity;BME280_pressure;Samples;Min_cycle;Max_cycle;Signal;HPM_P1;HPM_P2
2021/12/12 00:02:59;;;;;;;;;;;20.90;94.40;;;;;;5055112;28;20003;-73
2021/12/12 00:08:29;;;;;;;;;;;20.90;94.50;;;;;;5054703;28;19915;-73
2021/12/12 00:17:33;;;;;;;;;;;21.00;94.10;;;;;;5054557;28;19920;-73
2021/12/12 00:23:09;;;;;;;;;;;21.30;94.00;;;;;;5054464;28;19958;-73
2021/12/12 00:28:39;;;;;;;;;;;21.50;93.80;;;;;;5054327;28;19915;-74
2021/12/12 00:34:09;;;;;;;;;;;21.50;93.50;;;;;;5054339;28;19920;-79
2021/12/12 00:39:40;;;;;;;;;;;21.70;93.50;;;;;;5054364;28;19966;-80
2021/12/12 00:45:11;;;;;;;;;;;21.90;93.20;;;;;;5054137;28;19982;-79
2021/12/12 00:50:42;;;;;;;;;;;21.80;92.60;;;;;;5054199;28;19916;-79
2021/12/12 00:56:12;;;;;;;;;;;21.60;92.80;;;;;;5053790;28;19947;-79
2021/12/12 01:01:46;;;;;;;;;;;21.50;92.70;;;;;;5053749;28;19970;-79
2021/12/12 01:07:17;;;;;;;;;;;21.50;92.20;;;;;;5053536;28;19920;-79
2021/12/12 01:12:47;;;;;;;;;;;21.80;92.60;;;;;;5053514;28;20426;-79
2021/12/12 01:22:05;;;;;;;;;;;23.00;91.40;;;;;;5053536;28;19975;-80
2021/12/12 01:27:41;;;;;;;;;;;22.90;91.10;;;;;;5053436;28;20054;-78
2021/12/12 01:33:18;;;;;;;;;;;22.70;90.70;;;;;;5053199;28;20421;-78
2021/12/12 01:38:56;;;;;;;;;;;23.40;91.20;;;;;;5053581;28;19931;-77
2021/12/12 01:44:27;;;;;;;;;;;23.60;89.90;;;;;;5011160;28;20053;-77
2021/12/12 01:49:58;;;;;;;;;;;23.40;89.50;;;;;;5017655;28;20000;-76
2021/12/12 01:55:30;;;;;;;;;;;23.20;90.00;;;;;;5017653;28;19915;-78
2021/12/12 02:01:01;;;;;;;;;;;24.10;89.50;;;;;;5017638;28;19999;-76
2021/12/12 02:06:30;;;;;;;;;;;25.10;86.80;;;;;;5017532;28;20051;-78
2021/12/12 02:12:00;;;;;;;;;;;25.60;84.80;;;;;;5017580;28;20003;-79
2021/12/12 02:40:51;;;;;;;;;;;24.00;84.40;;;;;;5059396;28;19916;-78
2021/12/12 02:46:25;;;;;;;;;;;23.50;84.70;;;;;;5059362;28;20372;-78
2021/12/12 02:51:55;;;;;;;;;;;23.20;85.70;;;;;;5060052;28;19916;-80
2021/12/12 02:57:25;;;;;;;;;;;23.10;86.90;;;;;;5059864;28;19939;-82
2021/12/12 03:03:00;;;;;;;;;;;23.20;86.30;;;;;;5056168;28;19915;-80
2021/12/12 03:08:30;;;;;;;;;;;23.70;85.20;;;;;;5056088;28;19963;-76
2021/12/12 03:14:00;;;;;;;;;;;23.90;85.80;;;;;;5056084;28;19967;-73
2021/12/12 03:22:59;;;;;;;;;;;23.70;86.20;;;;;;5055913;28;20002;-74
2021/12/12 03:28:30;;;;;;;;;;;23.80;86.40;;;;;;5055872;28;19969;-77
2021/12/12 03:34:00;;;;;;;;;;;23.50;86.90;;;;;;5055349;28;19919;-72
2021/12/12 03:39:31;;;;;;;;;;;25.00;86.80;;;;;;5055308;28;20391;-68
2021/12/12 03:45:01;;;;;;;;;;;25.20;84.00;;;;;;5055116;28;19963;-68
2021/12/12 03:50:33;;;;;;;;;;;24.40;84.90;;;;;;5055065;28;20340;-68
2021/12/12 03:56:03;;;;;;;;;;;25.20;85.40;;;;;;5054960;28;19915;-68
2021/12/12 04:01:37;;;;;;;;;;;25.70;83.40;;;;;;5054858;28;20284;-67
2021/12/12 04:07:12;;;;;;;;;;;26.10;82.80;;;;;;5054680;28;19967;-70
2021/12/12 04:12:42;;;;;;;;;;;26.60;82.50;;;;;;5054074;28;19931;-68
2021/12/12 04:18:12;;;;;;;;;;;27.00;81.50;;;;;;5054570;28;19963;-68
2021/12/12 04:27:11;;;;;;;;;;;27.20;80.30;;;;;;5054340;28;20415;-68
2021/12/12 04:32:42;;;;;;;;;;;27.30;78.40;;;;;;5054255;28;19915;-68
2021/12/12 04:38:12;;;;;;;;;;;26.60;79.80;;;;;;5054094;28;19915;-68
2021/12/12 04:43:42;;;;;;;;;;;26.30;80.30;;;;;;5054002;28;20264;-68
